Main page
METAR-TAF:

METAR-TAF

Airports :

Burgos, Spain

Burgos Airport

latitude: 42-22N, longitude: 003-38W, elevation: 894 m

Current weather observation

The report was made 11 minutes ago, at 07:00 UTC
Wind 8 kt from the South/Southeast
Temperature 3°C
Humidity 60%
Pressure 1016 hPa
Visibility 10 km or more
no clouds below 1500 m and no cumulonimbus

METAR: LEBG 220700Z 15008KT CAVOK 03/M04 Q1016

Time: 08:11 (07:11 UTC)

Forecast

The report was made 2 hours and 11 minutes ago, at 05:00 UTC
Forecast valid from 22 at 06 UTC to 22 at 15 UTC
Wind 5 kt from the South/Southwest
Visibility 10 km or more
no clouds below 1500 m and no cumulonimbus
Becoming
from 22 at 11 UTC to 22 at 13 UTC
Wind 10 kt from the South/Southwest with gusts up to 20 kt

TAF: LEBG 220500Z 2206/2215 20005KT CAVOK BECMG 2211/2213 20010G20KT

Weather observations and forecasts of more than 4000 airports (METAR and TAF reports).

The available stations are represented by yellow and red dots on the map.

Hover mouse over dot to see the name of the station.

Then click to see weather observations and forecasts.

To change the map : click on the green buttons with a black cross to zoom in, on the green button with a dash to zoom out, or on the green arrows for adjacent maps.


METAR-TAF: